Time;durP1;ratioP1;P1;durP2;ratioP2;P2;SDS_P1;SDS_P2;PMS_P1;PMS_P2;Temp;Humidity;BMP_temperature;BMP_pressure;BME280_temperature;BME280_humidity;BME280_pressure;Samples;Min_cycle;Max_cycle;Signal;HPM_P1;HPM_P2
2023/11/21 00:01:40;;;;;;;5.45;3.83;;;;;;;7.02;63.87;99441.81;4425813;32;33702;-81
2023/11/21 00:04:08;;;;;;;2.55;2.35;;;;;;;6.96;63.86;99447.28;4426916;32;32867;-81
2023/11/21 00:06:36;;;;;;;1.77;1.52;;;;;;;6.83;64.28;99442.44;4424594;32;33778;-81
2023/11/21 00:09:05;;;;;;;3.72;2.92;;;;;;;6.87;64.40;99440.59;4407962;32;32342;-81
2023/11/21 00:11:32;;;;;;;2.80;2.62;;;;;;;6.84;64.38;99444.19;4443275;32;33603;-81
2023/11/21 00:14:00;;;;;;;2.20;2.10;;;;;;;6.84;64.77;99441.56;4421579;32;33551;-81
2023/11/21 00:16:28;;;;;;;2.08;1.92;;;;;;;6.83;64.68;99436.34;4440828;32;34321;-81
2023/11/21 00:18:56;;;;;;;6.97;2.28;;;;;;;6.86;64.44;99437.13;4430318;32;33172;-81
2023/11/21 00:21:23;;;;;;;1.27;1.27;;;;;;;7.01;63.97;99435.72;4426673;32;34341;-81
2023/11/21 00:23:51;;;;;;;0.68;0.68;;;;;;;6.89;64.27;99447.53;4424286;32;34580;-81
2023/11/21 00:26:19;;;;;;;1.08;1.00;;;;;;;7.15;62.97;99446.59;4420345;32;32671;-81
2023/11/21 00:28:47;;;;;;;1.77;1.65;;;;;;;7.03;63.06;99457.53;4426545;32;34120;-81
2023/11/21 00:31:15;;;;;;;0.75;0.75;;;;;;;6.98;63.39;99463.84;4420902;32;32925;-81
2023/11/21 00:33:43;;;;;;;4.22;3.53;;;;;;;6.88;63.86;99463.28;4419541;32;32777;-80
2023/11/21 00:36:12;;;;;;;1.65;1.55;;;;;;;6.83;63.88;99463.44;4409328;32;33450;-80
2023/11/21 00:38:40;;;;;;;1.05;1.05;;;;;;;6.90;63.69;99466.75;4416422;32;33621;-80
2023/11/21 00:41:08;;;;;;;2.53;2.33;;;;;;;6.96;63.34;99468.28;4426680;32;34163;-80
2023/11/21 00:43:35;;;;;;;3.37;2.83;;;;;;;6.90;63.39;99464.97;4428293;32;34433;-80
2023/11/21 00:46:09;;;;;;;3.58;3.20;;;;;;;6.89;63.54;99471.12;4427784;32;35279;-80
2023/11/21 00:48:37;;;;;;;1.60;1.48;;;;;;;6.86;63.60;99481.72;4427561;32;33646;-80
2023/11/21 00:51:06;;;;;;;2.72;2.45;;;;;;;6.88;63.01;99484.28;4428857;32;33504;-80
2023/11/21 00:53:34;;;;;;;2.08;1.98;;;;;;;6.74;64.07;99479.53;4427395;32;33410;-80
2023/11/21 00:56:02;;;;;;;1.00;0.77;;;;;;;7.19;61.99;99477.09;4402807;32;33918;-79
2023/11/21 00:58:30;;;;;;;6.57;3.08;;;;;;;7.04;61.59;99471.53;4439955;32;33022;-80
2023/11/21 01:00:58;;;;;;;4.20;2.42;;;;;;;6.85;62.60;99472.16;4427332;32;34171;-79
2023/11/21 01:03:26;;;;;;;3.17;2.90;;;;;;;6.68;63.57;99463.97;4426309;32;33776;-81
2023/11/21 01:05:54;;;;;;;1.92;1.62;;;;;;;6.65;63.38;99469.34;4439783;32;33337;-80
2023/11/21 01:08:23;;;;;;;2.95;2.67;;;;;;;6.55;63.68;99467.91;4426618;32;33720;-80
2023/11/21 01:10:51;;;;;;;1.02;1.02;;;;;;;6.68;63.46;99463.97;4426810;32;34295;-80
2023/11/21 01:13:18;;;;;;;0.98;0.98;;;;;;;6.58;64.00;99467.81;4439908;32;32958;-79
2023/11/21 01:15:46;;;;;;;2.10;1.58;;;;;;;6.88;62.81;99456.31;4439631;32;35255;-80
2023/11/21 01:18:14;;;;;;;2.42;2.22;;;;;;;6.70;63.19;99441.19;4440183;32;34627;-80
2023/11/21 01:20:41;;;;;;;3.53;3.22;;;;;;;6.67;63.68;99441.28;4439519;32;33596;-80
2023/11/21 01:23:09;;;;;;;1.92;1.83;;;;;;;6.50;64.27;99448.81;4440446;32;33122;-80
2023/11/21 01:25:37;;;;;;;1.00;1.00;;;;;;;6.67;63.44;99449.16;4439683;32;34511;-80
2023/11/21 01:28:04;;;;;;;2.80;2.60;;;;;;;6.47;64.89;99455.06;4426849;32;33347;-80
2023/11/21 01:30:32;;;;;;;2.10;1.65;;;;;;;6.80;62.91;99450.44;4413843;32;33591;-80
2023/11/21 01:33:00;;;;;;;0.80;0.80;;;;;;;6.68;63.58;99442.97;4425074;32;34486;-80
2023/11/21 01:35:30;;;;;;;0.82;0.82;;;;;;;6.59;63.27;99449.38;4427004;32;34489;-81
2023/11/21 01:37:58;;;;;;;1.48;1.20;;;;;;;6.25;64.78;99452.25;4411494;32;34582;-80
2023/11/21 01:40:26;;;;;;;1.20;1.20;;;;;;;6.51;64.02;99448.81;4425238;32;32821;-81
2023/11/21 01:42:54;;;;;;;5.05;1.52;;;;;;;6.37;64.46;99438.75;4439118;32;34018;-81
2023/11/21 01:45:22;;;;;;;5.95;0.88;;;;;;;6.47;64.87;99449.81;4424345;32;34168;-81
2023/11/21 01:47:50;;;;;;;2.37;1.67;;;;;;;6.56;64.67;99438.16;4439338;32;33847;-81
2023/11/21 01:50:19;;;;;;;3.10;1.30;;;;;;;6.60;64.46;99434.53;4439577;32;34035;-81
2023/11/21 01:52:47;;;;;;;1.80;1.70;;;;;;;6.47;64.89;99433.22;4426648;32;35038;-81
2023/11/21 01:55:20;;;;;;;5.62;4.07;;;;;;;6.61;64.51;99434.47;4426607;32;33720;-81
2023/11/21 01:57:56;;;;;;;3.92;2.03;;;;;;;6.56;64.54;99433.75;4452209;32;33110;-81
2023/11/21 02:00:27;;;;;;;5.70;3.22;;;;;;;6.53;64.71;99430.37;4426862;32;34107;-81
2023/11/21 02:02:57;;;;;;;1.80;1.70;;;;;;;6.60;64.70;99426.66;4426494;32;34286;-81
2023/11/21 02:05:25;;;;;;;1.87;1.77;;;;;;;6.64;65.01;99415.13;4437537;32;34009;-79
2023/11/21 02:07:53;;;;;;;2.58;2.37;;;;;;;6.51;65.39;99412.09;4427842;32;34656;-80
2023/11/21 02:10:22;;;;;;;3.78;3.17;;;;;;;6.72;64.74;99413.09;4439474;32;33589;-80
2023/11/21 02:12:52;;;;;;;3.83;2.08;;;;;;;7.05;63.37;99404.97;4438013;32;32785;-80
2023/11/21 02:15:20;;;;;;;1.75;1.65;;;;;;;6.82;63.84;99406.63;4439242;32;33881;-79
2023/11/21 02:17:53;;;;;;;1.60;1.50;;;;;;;6.82;63.82;99411.88;4437406;32;34748;-79
2023/11/21 02:20:24;;;;;;;1.17;1.10;;;;;;;6.73;64.58;99412.19;4439600;32;34349;-80
2023/11/21 02:22:59;;;;;;;1.33;1.33;;;;;;;6.70;64.92;99412.31;4452665;32;33753;-79
2023/11/21 02:25:33;;;;;;;2.05;1.45;;;;;;;6.81;64.91;99398.81;4439121;32;34096;-79
2023/11/21 02:28:03;;;;;;;2.47;1.65;;;;;;;6.78;64.95;99396.28;4439650;32;34273;-79
2023/11/21 02:30:34;;;;;;;2.17;2.08;;;;;;;6.74;64.84;99390.31;4426064;32;32616;-79
2023/11/21 02:33:02;;;;;;;3.67;1.87;;;;;;;6.80;64.55;99394.50;4439537;32;34292;-79
2023/11/21 02:35:31;;;;;;;0.85;0.82;;;;;;;6.80;64.96;99387.47;4439146;32;34402;-79
2023/11/21 02:37:59;;;;;;;1.17;1.17;;;;;;;7.15;63.23;99383.56;4453234;32;33823;-79
2023/11/21 02:40:27;;;;;;;1.73;1.65;;;;;;;7.02;63.88;99394.56;4451886;32;34962;-80
2023/11/21 02:42:58;;;;;;;1.35;1.33;;;;;;;6.86;64.25;99379.38;4439258;32;33836;-79
2023/11/21 02:45:27;;;;;;;3.83;2.50;;;;;;;6.86;64.36;99387.25;4426319;32;33109;-79
2023/11/21 02:47:56;;;;;;;0.95;0.88;;;;;;;6.95;64.06;99382.59;4439014;32;33904;-79
2023/11/21 02:50:26;;;;;;;8.20;2.77;;;;;;;7.26;63.04;99377.06;4439497;32;33297;-79
2023/11/21 02:52:54;;;;;;;15.90;6.43;;;;;;;7.12;63.10;99385.44;4426490;32;34494;-79
2023/11/21 02:55:24;;;;;;;0.93;0.93;;;;;;;7.04;63.79;99388.38;4439357;32;33954;-79
2023/11/21 02:57:56;;;;;;;1.58;1.33;;;;;;;6.74;64.66;99389.44;4425631;32;33958;-79
2023/11/21 03:00:26;;;;;;;3.50;2.92;;;;;;;6.84;64.79;99378.59;4451337;32;34198;-79
2023/11/21 03:02:56;;;;;;;0.80;0.80;;;;;;;6.96;64.64;99374.66;4432877;32;31048;-79
2023/11/21 03:05:23;;;;;;;1.65;1.55;;;;;;;6.96;64.37;99368.56;4439304;32;32388;-80
2023/11/21 03:07:51;;;;;;;1.67;1.58;;;;;;;7.04;64.16;99374.41;4439025;32;33990;-80
2023/11/21 03:10:21;;;;;;;1.35;1.15;;;;;;;6.88;64.59;99374.94;4439142;32;32611;-79
2023/11/21 03:12:49;;;;;;;9.73;3.80;;;;;;;6.84;65.24;99365.47;4426124;32;32981;-79
2023/11/21 03:15:17;;;;;;;2.28;1.35;;;;;;;6.84;64.84;99360.22;4411885;32;33431;-79
2023/11/21 03:17:45;;;;;;;1.55;1.45;;;;;;;6.85;64.86;99361.94;4426184;32;33958;-79
2023/11/21 03:20:13;;;;;;;0.90;0.90;;;;;;;6.97;65.07;99360.63;4426185;32;32785;-79
2023/11/21 03:22:41;;;;;;;0.73;0.73;;;;;;;7.04;64.77;99356.88;4437414;32;33527;-80
2023/11/21 03:25:12;;;;;;;0.73;0.73;;;;;;;7.31;63.64;99357.62;4451776;32;34867;-80
2023/11/21 03:27:39;;;;;;;1.90;1.80;;;;;;;7.02;64.79;99347.31;4426413;32;33361;-80
2023/11/21 03:30:08;;;;;;;1.75;1.37;;;;;;;7.05;64.74;99341.97;4438461;32;32852;-80
2023/11/21 03:32:36;;;;;;;3.15;1.52;;;;;;;7.06;64.91;99330.56;4423420;32;33910;-80
2023/11/21 03:35:05;;;;;;;1.12;1.12;;;;;;;7.04;64.40;99322.75;4438965;32;33209;-81
2023/11/21 03:37:34;;;;;;;0.57;0.57;;;;;;;7.00;64.51;99326.38;4439048;32;34135;-80
2023/11/21 03:40:04;;;;;;;2.65;1.00;;;;;;;7.03;64.86;99326.28;4424986;32;33625;-80
2023/11/21 03:42:31;;;;;;;0.65;0.65;;;;;;;6.96;65.20;99316.06;4452854;32;34523;-80
2023/11/21 03:44:59;;;;;;;2.40;2.20;;;;;;;7.07;64.83;99327.00;4451251;32;34172;-80
2023/11/21 03:47:28;;;;;;;1.33;1.23;;;;;;;7.17;64.35;99328.41;4437873;32;38342;-80
2023/11/21 03:49:56;;;;;;;0.25;0.25;;;;;;;6.94;65.67;99337.13;4425775;32;32418;-80
2023/11/21 03:52:24;;;;;;;1.05;0.77;;;;;;;7.32;63.93;99340.09;4423964;32;33175;-79
2023/11/21 03:54:52;;;;;;;0.88;0.88;;;;;;;7.14;63.98;99346.88;4438514;32;34078;-79
2023/11/21 03:57:20;;;;;;;2.17;1.98;;;;;;;7.29;63.73;99343.69;4425671;32;34301;-79
2023/11/21 03:59:48;;;;;;;2.92;1.67;;;;;;;7.49;62.54;99347.31;4413276;32;33442;-78
2023/11/21 04:02:17;;;;;;;0.30;0.30;;;;;;;7.22;63.32;99344.84;4438426;32;33683;-79
2023/11/21 04:04:45;;;;;;;1.83;0.50;;;;;;;7.11;63.94;99347.00;4424572;32;33959;-80
2023/11/21 04:07:13;;;;;;;0.30;0.30;;;;;;;7.08;64.14;99352.38;4425955;32;35294;-80
2023/11/21 04:09:41;;;;;;;0.80;0.80;;;;;;;7.07;64.30;99350.63;4425432;32;34064;-80
2023/11/21 04:12:09;;;;;;;0.37;0.37;;;;;;;7.08;64.18;99352.38;4425614;32;32774;-80
2023/11/21 04:14:37;;;;;;;0.88;0.88;;;;;;;7.27;63.78;99363.91;4437953;32;33677;-80
2023/11/21 04:17:04;;;;;;;0.00;0.00;;;;;;;7.00;64.47;99364.91;4438189;32;34609;-80
2023/11/21 04:19:32;;;;;;;0.43;0.43;;;;;;;7.07;63.83;99369.88;4426062;32;34366;-80
2023/11/21 04:22:00;;;;;;;4.20;0.85;;;;;;;6.90;64.72;99370.50;4417935;32;33443;-81
2023/11/21 04:24:28;;;;;;;0.43;0.43;;;;;;;6.96;64.59;99363.31;4430689;32;33426;-81
2023/11/21 04:26:56;;;;;;;0.80;0.80;;;;;;;7.05;64.78;99368.22;4418156;32;34215;-81
2023/11/21 04:29:23;;;;;;;0.37;0.37;;;;;;;7.07;65.16;99366.38;4433757;32;34006;-81
2023/11/21 04:31:51;;;;;;;0.68;0.68;;;;;;;7.08;64.98;99357.62;4439456;32;33115;-80
2023/11/21 04:34:18;;;;;;;0.32;0.32;;;;;;;7.10;65.30;99363.66;4427182;32;33074;-80
2023/11/21 04:36:46;;;;;;;1.35;1.05;;;;;;;7.10;64.53;99368.91;4419540;32;34024;-80
2023/11/21 04:39:14;;;;;;;0.55;0.35;;;;;;;7.30;64.12;99368.16;4427543;32;33208;-80
2023/11/21 04:41:42;;;;;;;1.98;0.85;;;;;;;7.15;64.19;99372.22;4441132;32;33709;-80
2023/11/21 04:44:10;;;;;;;0.05;0.05;;;;;;;7.00;64.89;99378.03;4440053;32;33427;-80
2023/11/21 04:46:37;;;;;;;0.98;0.98;;;;;;;7.38;63.94;99385.38;4438645;32;33813;-80
2023/11/21 04:49:05;;;;;;;0.30;0.30;;;;;;;7.21;64.46;99394.78;4440064;32;34263;-80
2023/11/21 04:51:33;;;;;;;0.95;0.95;;;;;;;7.14;64.91;99400.25;4439920;32;34327;-80
2023/11/21 04:54:01;;;;;;;0.40;0.40;;;;;;;7.17;65.17;99402.78;4439746;32;32884;-80
2023/11/21 04:56:28;;;;;;;0.00;0.00;;;;;;;7.20;65.12;99399.16;4440078;32;34797;-80
2023/11/21 04:58:56;;;;;;;0.75;0.75;;;;;;;7.20;65.21;99396.53;4439806;32;33676;-80
2023/11/21 05:01:24;;;;;;;0.00;0.00;;;;;;;7.21;65.34;99400.03;4427038;32;33523;-80
2023/11/21 05:03:52;;;;;;;0.37;0.37;;;;;;;7.29;65.14;99409.34;4439852;32;33692;-80
2023/11/21 05:06:20;;;;;;;0.13;0.13;;;;;;;7.37;65.03;99414.31;4439799;32;33590;-80
2023/11/21 05:08:47;;;;;;;1.37;1.00;;;;;;;7.44;64.77;99414.03;4427171;32;33010;-80
2023/11/21 05:11:31;;;;;;;0.00;0.00;;;;;;;7.41;65.07;99414.16;4427000;32;34100;-80
2023/11/21 05:14:01;;;;;;;0.70;0.70;;;;;;;7.36;65.57;99407.37;4439052;32;33994;-80
2023/11/21 05:16:29;;;;;;;0.15;0.15;;;;;;;7.40;65.02;99401.91;4426293;32;33410;-79
2023/11/21 05:19:00;;;;;;;0.47;0.47;;;;;;;7.43;65.33;99396.56;4452769;32;34383;-80
2023/11/21 05:21:30;;;;;;;1.73;1.65;;;;;;;7.54;65.23;99388.25;4439575;32;34583;-80
2023/11/21 05:23:58;;;;;;;1.83;0.62;;;;;;;7.52;65.18;99391.87;4426194;32;33930;-80
2023/11/21 05:26:26;;;;;;;0.77;0.77;;;;;;;7.46;65.33;99394.75;4439263;32;33874;-80
2023/11/21 05:28:54;;;;;;;1.75;1.17;;;;;;;7.74;64.66;99400.66;4439659;32;33710;-81
2023/11/21 05:31:22;;;;;;;1.08;1.08;;;;;;;7.63;64.84;99401.06;4439086;32;32814;-81
2023/11/21 05:33:50;;;;;;;0.43;0.43;;;;;;;7.78;64.67;99401.38;4439787;32;33446;-81
2023/11/21 05:36:18;;;;;;;0.40;0.40;;;;;;;7.54;65.39;99397.91;4426288;32;33627;-80
2023/11/21 05:38:45;;;;;;;1.10;1.00;;;;;;;7.56;65.30;99391.72;4439593;32;33463;-80
2023/11/21 05:41:13;;;;;;;1.48;1.37;;;;;;;7.65;65.16;99393.13;4439424;32;33130;-81
2023/11/21 05:43:41;;;;;;;0.13;0.13;;;;;;;7.63;65.64;99395.78;4439441;32;33136;-80
2023/11/21 05:46:09;;;;;;;1.10;1.00;;;;;;;7.64;65.67;99401.91;4439435;32;32985;-80
2023/11/21 05:48:39;;;;;;;0.65;0.65;;;;;;;7.69;65.02;99402.59;4426381;32;33127;-81
2023/11/21 05:51:08;;;;;;;0.62;0.62;;;;;;;7.59;65.68;99411.72;4428032;32;33791;-79
2023/11/21 05:53:36;;;;;;;1.65;1.55;;;;;;;7.69;65.27;99413.09;4426215;32;33440;-79
2023/11/21 05:56:04;;;;;;;2.75;1.75;;;;;;;7.95;64.43;99420.00;4453133;32;34129;-80
2023/11/21 05:58:32;;;;;;;0.93;0.93;;;;;;;7.81;65.04;99417.91;4426557;32;33400;-81
2023/11/21 06:01:00;;;;;;;0.62;0.62;;;;;;;7.85;64.92;99418.62;4425551;32;34598;-80
2023/11/21 06:03:27;;;;;;;1.15;0.90;;;;;;;7.87;65.12;99422.91;4424889;32;33616;-80
2023/11/21 06:05:55;;;;;;;0.20;0.20;;;;;;;7.82;65.47;99418.75;4436140;32;32713;-80
2023/11/21 06:08:23;;;;;;;0.52;0.52;;;;;;;7.89;65.02;99426.34;4437291;32;32985;-80
2023/11/21 06:10:52;;;;;;;1.02;1.02;;;;;;;7.91;65.04;99419.25;4436280;32;33495;-80
2023/11/21 06:13:24;;;;;;;0.77;0.77;;;;;;;7.88;65.64;99429.00;4437710;32;33535;-80
2023/11/21 06:15:52;;;;;;;1.17;1.08;;;;;;;7.93;65.57;99443.72;4451755;32;35462;-81
2023/11/21 06:18:20;;;;;;;1.35;1.33;;;;;;;8.17;64.60;99443.69;4439139;32;33613;-82
2023/11/21 06:20:48;;;;;;;0.73;0.73;;;;;;;8.09;64.60;99456.25;4426651;32;32901;-80
2023/11/21 06:23:16;;;;;;;0.22;0.22;;;;;;;7.91;65.41;99450.78;4449611;32;34435;-80
2023/11/21 06:25:44;;;;;;;0.70;0.70;;;;;;;7.99;65.62;99462.81;4451413;32;34108;-81
2023/11/21 06:28:12;;;;;;;3.08;1.40;;;;;;;8.44;63.83;99471.53;4437302;32;33463;-80
2023/11/21 06:30:40;;;;;;;2.70;1.25;;;;;;;8.56;63.38;99478.09;4434569;32;32736;-81
2023/11/21 06:33:08;;;;;;;0.93;0.88;;;;;;;8.49;63.54;99475.75;4424212;32;33492;-81
2023/11/21 06:35:35;;;;;;;1.30;1.17;;;;;;;8.40;63.85;99483.13;4426638;32;33988;-81
2023/11/21 06:38:03;;;;;;;1.08;1.08;;;;;;;8.30;64.54;99481.72;4425569;32;33484;-81
2023/11/21 06:40:33;;;;;;;1.20;0.80;;;;;;;8.10;65.63;99486.91;4429608;32;33350;-80
2023/11/21 06:43:01;;;;;;;0.88;0.88;;;;;;;8.33;65.13;99492.13;4438737;32;34468;-80
2023/11/21 06:45:29;;;;;;;0.75;0.75;;;;;;;8.46;64.83;99488.13;4453581;32;34098;-81
2023/11/21 06:47:56;;;;;;;6.60;3.00;;;;;;;8.54;64.81;99486.94;4427237;32;33122;-81
2023/11/21 06:50:24;;;;;;;1.25;1.15;;;;;;;8.36;65.08;99494.69;4426634;32;33903;-81
2023/11/21 06:52:52;;;;;;;1.27;1.08;;;;;;;8.54;66.03;99490.44;4425006;32;34961;-81
2023/11/21 06:55:20;;;;;;;0.35;0.35;;;;;;;8.38;66.85;99492.81;4439235;32;34414;-81
2023/11/21 06:57:48;;;;;;;1.17;1.08;;;;;;;8.57;67.20;99487.69;4450964;32;34056;-81
2023/11/21 07:00:18;;;;;;;0.37;0.37;;;;;;;8.74;67.10;99487.00;4450013;32;34724;-81
2023/11/21 07:02:46;;;;;;;1.92;0.88;;;;;;;8.49;67.94;99488.91;4439291;32;33208;-81
2023/11/21 07:05:15;;;;;;;0.82;0.82;;;;;;;8.62;69.00;99482.25;4426891;32;33605;-81
2023/11/21 07:07:43;;;;;;;0.93;0.28;;;;;;;8.71;69.34;99487.12;4439212;32;32501;-81
2023/11/21 07:10:11;;;;;;;3.30;1.60;;;;;;;9.17;68.33;99493.09;4425145;32;33841;-81
2023/11/21 07:12:40;;;;;;;0.00;0.00;;;;;;;9.23;68.40;99490.19;4430405;32;34592;-81
2023/11/21 07:15:11;;;;;;;0.45;0.45;;;;;;;9.41;67.71;99486.78;4439123;32;34424;-81
2023/11/21 07:17:40;;;;;;;1.65;1.45;;;;;;;9.46;67.48;99483.94;4437669;32;33628;-81
2023/11/21 07:20:10;;;;;;;0.30;0.30;;;;;;;9.68;66.75;99489.09;4427239;32;34559;-81
2023/11/21 07:22:40;;;;;;;1.17;1.10;;;;;;;9.76;66.07;99484.34;4452443;32;34693;-81
2023/11/21 07:25:10;;;;;;;0.05;0.05;;;;;;;9.45;67.09;99492.78;4432426;32;34157;-81
2023/11/21 07:27:37;;;;;;;1.37;1.35;;;;;;;9.83;65.29;99491.06;4451665;32;33570;-81
2023/11/21 07:30:07;;;;;;;2.70;1.52;;;;;;;9.83;65.00;99493.69;4410651;32;32385;-81
2023/11/21 07:32:36;;;;;;;3.30;1.65;;;;;;;9.72;65.34;99488.03;4439023;32;33374;-82
2023/11/21 07:35:04;;;;;;;0.30;0.30;;;;;;;9.79;65.06;99488.63;4451593;32;34090;-82
2023/11/21 07:37:34;;;;;;;0.47;0.47;;;;;;;9.73;64.90;99487.09;4454070;32;33076;-81
2023/11/21 07:40:02;;;;;;;0.88;0.80;;;;;;;9.59;65.47;99484.22;4451427;32;33503;-82
2023/11/21 07:42:31;;;;;;;0.25;0.25;;;;;;;9.51;65.76;99491.63;4424582;32;32941;-83
2023/11/21 07:44:59;;;;;;;0.55;0.55;;;;;;;9.65;65.43;99492.75;4421255;32;34246;-82
2023/11/21 07:47:32;;;;;;;0.10;0.10;;;;;;;9.84;64.88;99487.50;4436512;32;34324;-82
2023/11/21 07:50:02;;;;;;;0.85;0.85;;;;;;;10.04;64.18;99496.25;4422075;32;35153;-82
2023/11/21 07:52:32;;;;;;;2.00;1.15;;;;;;;9.77;65.07;99493.94;4433940;32;33925;-83
2023/11/21 07:55:01;;;;;;;1.10;0.57;;;;;;;9.79;65.05;99492.13;4429839;32;34317;-83
2023/11/21 07:57:29;;;;;;;0.28;0.28;;;;;;;9.79;65.07;99494.75;4431907;32;33526;-83
2023/11/21 07:59:56;;;;;;;0.52;0.52;;;;;;;9.78;65.37;99492.16;4431039;32;33328;-83
2023/11/21 08:02:25;;;;;;;1.95;1.12;;;;;;;9.75;65.29;99493.19;4426410;32;34248;-83
2023/11/21 08:04:54;;;;;;;1.42;1.33;;;;;;;9.75;65.72;99496.66;4424370;32;33090;-82
2023/11/21 08:07:22;;;;;;;3.20;1.45;;;;;;;9.68;66.39;99497.00;4452168;32;33355;-83
2023/11/21 08:09:49;;;;;;;0.75;0.75;;;;;;;9.73;65.95;99484.47;4430032;32;32966;-83
2023/11/21 08:12:18;;;;;;;0.75;0.75;;;;;;;9.81;65.81;99490.25;4436336;32;33976;-83
2023/11/21 08:14:45;;;;;;;0.37;0.37;;;;;;;9.72;66.33;99495.94;4424808;32;33789;-83
2023/11/21 08:17:15;;;;;;;0.05;0.05;;;;;;;9.84;65.96;99495.41;4426245;32;32492;-82
2023/11/21 08:19:49;;;;;;;0.37;0.37;;;;;;;9.88;65.78;99491.69;4436279;32;32172;-82
2023/11/21 08:22:17;;;;;;;8.63;1.85;;;;;;;9.97;65.79;99485.16;4423786;32;33862;-82
2023/11/21 08:24:46;;;;;;;0.22;0.20;;;;;;;10.00;65.72;99480.56;4451090;32;35188;-82
2023/11/21 08:27:15;;;;;;;0.80;0.75;;;;;;;9.99;66.12;99481.50;4426289;32;33935;-82
2023/11/21 08:29:43;;;;;;;0.65;0.65;;;;;;;9.86;66.55;99482.97;4424474;32;33811;-82
2023/11/21 08:32:11;;;;;;;0.93;0.35;;;;;;;10.07;65.80;99475.03;4437567;32;33856;-83
2023/11/21 08:34:39;;;;;;;4.68;1.70;;;;;;;10.05;66.38;99479.50;4438433;32;35122;-83
2023/11/21 08:37:08;;;;;;;1.30;1.20;;;;;;;10.01;66.24;99463.81;4437398;32;32917;-82
2023/11/21 08:39:37;;;;;;;1.02;1.02;;;;;;;10.11;66.26;99468.66;4438898;32;34654;-82
2023/11/21 08:42:04;;;;;;;2.87;1.77;;;;;;;10.27;65.80;99467.06;4450853;32;33913;-82
2023/11/21 08:44:32;;;;;;;0.98;0.98;;;;;;;10.46;64.89;99465.22;4425552;32;33993;-82
2023/11/21 08:47:00;;;;;;;0.80;0.47;;;;;;;10.44;65.29;99469.75;4429906;32;33398;-83
2023/11/21 08:49:29;;;;;;;1.08;0.98;;;;;;;10.42;65.41;99470.72;4425842;32;33449;-83
2023/11/21 08:51:59;;;;;;;1.12;1.00;;;;;;;10.56;65.05;99473.56;4434241;32;33080;-82
2023/11/21 08:54:27;;;;;;;1.20;1.10;;;;;;;10.68;64.52;99482.66;4425403;32;34211;-83
2023/11/21 08:56:55;;;;;;;1.17;0.50;;;;;;;10.60;64.86;99490.97;4432531;32;32908;-83
2023/11/21 08:59:22;;;;;;;1.05;0.95;;;;;;;10.45;65.49;99492.56;4406974;32;32946;-83
2023/11/21 09:01:50;;;;;;;2.62;1.15;;;;;;;10.43;65.37;99494.41;4419717;32;33978;-83
2023/11/21 09:04:18;;;;;;;1.80;1.65;;;;;;;10.41;65.83;99490.16;4419786;32;33819;-83
2023/11/21 09:06:46;;;;;;;0.60;0.60;;;;;;;10.68;64.68;99493.22;4422675;32;33223;-82
2023/11/21 09:09:13;;;;;;;4.18;1.45;;;;;;;10.82;64.30;99492.53;4409407;32;32748;-83
2023/11/21 09:11:41;;;;;;;0.52;0.52;;;;;;;10.80;64.49;99494.41;4423509;32;34039;-83
2023/11/21 09:14:10;;;;;;;0.10;0.10;;;;;;;10.76;64.76;99488.41;4421953;32;34093;-83
2023/11/21 09:16:38;;;;;;;0.60;0.52;;;;;;;10.58;65.52;99497.22;4420413;32;33203;-83
2023/11/21 09:19:06;;;;;;;1.33;0.73;;;;;;;10.64;65.61;99497.81;4421759;32;33842;-83
2023/11/21 09:21:34;;;;;;;1.05;1.05;;;;;;;10.62;66.27;99490.87;4432593;32;33935;-83
2023/11/21 09:24:02;;;;;;;0.77;0.75;;;;;;;10.70;66.05;99480.81;4421909;32;33881;-83
2023/11/21 09:26:30;;;;;;;3.70;2.58;;;;;;;10.70;66.25;99464.97;4408389;32;34376;-83
2023/11/21 09:28:58;;;;;;;0.90;0.90;;;;;;;10.88;65.56;99474.63;4408905;32;34779;-83
2023/11/21 09:31:27;;;;;;;6.22;2.17;;;;;;;10.84;65.60;99467.78;4421784;32;34802;-83
2023/11/21 09:33:55;;;;;;;1.85;0.95;;;;;;;10.92;65.69;99460.31;4421427;32;34112;-83
2023/11/21 09:36:27;;;;;;;0.40;0.40;;;;;;;11.03;65.48;99457.12;4421497;32;33212;-83
2023/11/21 09:38:55;;;;;;;0.32;0.32;;;;;;;10.96;65.78;99456.56;4410145;32;34548;-83
2023/11/21 09:41:34;;;;;;;0.47;0.40;;;;;;;11.01;65.35;99446.66;4408485;32;33964;-83
2023/11/21 09:44:07;;;;;;;0.90;0.90;;;;;;;11.03;65.54;99447.41;4422282;32;34548;-83
2023/11/21 09:46:38;;;;;;;;;;;;;;;11.13;65.19;99439.03;4408904;32;33171;-83
2023/11/21 09:49:12;;;;;;;0.50;0.50;;;;;;;11.18;64.88;99439.63;4422508;32;34133;-83
2023/11/21 09:51:43;;;;;;;1.58;1.48;;;;;;;11.27;64.58;99436.50;4388737;32;33208;-83
2023/11/21 09:54:11;;;;;;;1.25;1.25;;;;;;;11.21;64.88;99439.47;4421364;32;33911;-83
2023/11/21 09:56:39;;;;;;;1.85;1.08;;;;;;;11.52;63.80;99446.63;4423166;32;34051;-83
2023/11/21 09:59:09;;;;;;;1.62;0.82;;;;;;;11.47;63.65;99440.75;4428717;32;34430;-83
2023/11/21 10:01:39;;;;;;;2.53;1.23;;;;;;;11.64;63.21;99438.06;4437952;32;33506;-83
2023/11/21 10:04:11;;;;;;;0.85;0.85;;;;;;;11.50;63.70;99436.16;4427851;32;34294;-83
2023/11/21 10:06:41;;;;;;;2.08;0.90;;;;;;;11.40;64.07;99431.44;4431657;32;32448;-83
2023/11/21 10:09:11;;;;;;;11.77;1.08;;;;;;;11.47;64.11;99423.09;4398907;32;32864;-83
2023/11/21 10:11:43;;;;;;;5.28;2.85;;;;;;;11.81;63.02;99426.56;4440847;32;34054;-83
2023/11/21 10:14:13;;;;;;;;;;;;;;;11.78;62.67;99418.81;4427726;32;34271;-82
2023/11/21 10:16:41;;;;;;;1.75;1.45;;;;;;;11.88;62.36;99424.47;4428564;32;33336;-83
2023/11/21 10:19:10;;;;;;;1.62;1.52;;;;;;;11.85;62.68;99414.91;4421399;32;34547;-82
2023/11/21 10:21:39;;;;;;;1.48;0.68;;;;;;;11.73;62.80;99415.56;4430854;32;34684;-83
2023/11/21 10:24:07;;;;;;;1.17;1.08;;;;;;;11.86;62.29;99416.59;4432875;32;34203;-82
2023/11/21 10:26:35;;;;;;;1.52;1.45;;;;;;;11.91;62.14;99413.72;4425548;32;33598;-83
2023/11/21 10:29:18;;;;;;;0.80;0.80;;;;;;;11.92;61.81;99418.09;4423628;32;33780;-83
2023/11/21 10:31:49;;;;;;;2.70;1.62;;;;;;;11.90;61.80;99419.94;4426972;32;33961;-83
2023/11/21 10:34:21;;;;;;;1.08;1.05;;;;;;;11.92;61.77;99418.94;4413502;32;34045;-83
2023/11/21 10:36:50;;;;;;;1.98;1.33;;;;;;;12.15;60.89;99416.78;4425831;32;32513;-83
2023/11/21 10:39:23;;;;;;;0.80;0.80;;;;;;;12.17;60.70;99410.47;4409325;32;33202;-83
2023/11/21 10:41:51;;;;;;;1.65;1.00;;;;;;;12.05;60.81;99412.00;4426701;32;34785;-82
2023/11/21 10:44:23;;;;;;;0.32;0.32;;;;;;;12.07;61.13;99406.63;4420781;32;33196;-83
2023/11/21 10:46:55;;;;;;;8.98;2.40;;;;;;;12.14;60.55;99415.06;4412217;32;32875;-82
2023/11/21 10:49:27;;;;;;;;;;;;;;;12.31;60.44;99420.28;4426663;32;34256;-83
2023/11/21 10:51:55;;;;;;;0.50;0.50;;;;;;;12.47;59.95;99417.59;4421784;32;33908;-84
2023/11/21 10:54:25;;;;;;;1.17;0.90;;;;;;;12.35;59.94;99408.59;4414052;32;33097;-83
2023/11/21 10:56:56;;;;;;;0.75;0.73;;;;;;;12.37;59.31;99411.97;4407596;32;33395;-83
2023/11/21 10:59:28;;;;;;;0.68;0.68;;;;;;;12.62;58.76;99414.06;4427293;32;33011;-83
2023/11/21 11:01:57;;;;;;;0.53;0.43;;;;;;;12.60;58.48;99407.16;4439563;32;33764;-83
2023/11/21 11:04:27;;;;;;;0.80;0.75;;;;;;;12.74;57.97;99401.91;4437346;32;33462;-83
2023/11/21 11:06:57;;;;;;;0.40;0.40;;;;;;;12.69;58.50;99402.19;4438429;32;32567;-83
2023/11/21 11:09:26;;;;;;;0.75;0.75;;;;;;;12.53;58.93;99402.22;4413547;32;33801;-83
2023/11/21 11:11:54;;;;;;;1.30;1.20;;;;;;;12.38;59.68;99400.44;4438576;32;34077;-83
2023/11/21 11:14:25;;;;;;;0.93;0.62;;;;;;;12.46;59.45;99400.84;4439572;32;33113;-83
2023/11/21 11:16:55;;;;;;;1.30;1.17;;;;;;;12.64;58.59;99398.94;4438305;32;32015;-83
2023/11/21 11:19:23;;;;;;;1.92;1.80;;;;;;;12.54;58.83;99398.63;4450518;32;32438;-83
2023/11/21 11:22:18;;;;;;;1.20;1.10;;;;;;;12.66;58.57;99399.69;4426635;32;33231;-83
2023/11/21 11:24:55;;;;;;;1.42;1.00;;;;;;;12.61;59.02;99400.91;4451955;32;34061;-83
2023/11/21 11:27:35;;;;;;;0.75;0.75;;;;;;;12.79;58.27;99403.34;4438417;32;32484;-83
2023/11/21 11:30:46;;;;;;;2.20;1.45;;;;;;;12.69;58.45;99396.03;4447391;32;34082;-84
2023/11/21 11:33:25;;;;;;;1.45;1.05;;;;;;;12.89;57.87;99395.69;4451989;32;33711;-83
2023/11/21 11:36:03;;;;;;;0.50;0.43;;;;;;;12.85;57.80;99388.88;4438716;32;32802;-84
2023/11/21 11:38:33;;;;;;;0.90;0.90;;;;;;;12.87;57.91;99388.78;4451642;32;33706;-83
2023/11/21 11:41:04;;;;;;;11.73;1.55;;;;;;;13.13;56.83;99376.59;4451202;32;33959;-83
2023/11/21 11:43:44;;;;;;;1.87;1.17;;;;;;;13.08;55.64;99379.53;4443730;32;33573;-83
2023/11/21 11:46:13;;;;;;;0.30;0.30;;;;;;;12.76;56.76;99381.47;4426791;32;33497;-83
2023/11/21 11:48:40;;;;;;;1.35;1.15;;;;;;;12.66;57.87;99375.00;4439196;32;33341;-83